createdAt,value
2022-09-25T00:01:16.285Z,-76
2022-09-25T00:03:43.589Z,-77
2022-09-25T00:06:21.281Z,-74
2022-09-25T00:08:49.791Z,-75
2022-09-25T00:11:30.164Z,-76
2022-09-25T00:14:00.520Z,-75
2022-09-25T00:16:32.463Z,-76
2022-09-25T00:19:00.793Z,-75
2022-09-25T00:21:28.462Z,-74
2022-09-25T00:23:55.718Z,-75
2022-09-25T00:26:28.297Z,-74
2022-09-25T00:28:56.519Z,-76
2022-09-25T00:31:25.325Z,-74
2022-09-25T00:33:54.375Z,-77
2022-09-25T00:36:21.600Z,-77
2022-09-25T00:38:49.269Z,-74
2022-09-25T00:41:20.175Z,-75
2022-09-25T00:43:52.083Z,-74
2022-09-25T00:46:44.267Z,-75
2022-09-25T00:49:20.001Z,-76
2022-09-25T00:51:54.633Z,-76
2022-09-25T00:54:38.842Z,-75
2022-09-25T00:57:13.056Z,-74
2022-09-25T00:59:50.848Z,-76
2022-09-25T01:02:32.043Z,-75
2022-09-25T01:05:05.532Z,-75
2022-09-25T01:07:38.507Z,-76
2022-09-25T01:10:08.298Z,-76
2022-09-25T01:12:45.252Z,-77
2022-09-25T01:15:17.189Z,-75
2022-09-25T01:18:13.754Z,-75
2022-09-25T01:20:58.476Z,-74
2022-09-25T01:23:49.773Z,-77
2022-09-25T01:27:06.618Z,-74
2022-09-25T01:30:06.720Z,-76
2022-09-25T01:32:48.519Z,-75
2022-09-25T01:35:30.864Z,-76
2022-09-25T01:38:26.903Z,-76
2022-09-25T01:41:28.092Z,-74
2022-09-25T01:44:16.895Z,-75
2022-09-25T01:46:56.965Z,-74
2022-09-25T01:49:33.965Z,-74
2022-09-25T01:52:10.883Z,-75
2022-09-25T01:54:51.881Z,-76
2022-09-25T01:57:42.624Z,-78
2022-09-25T02:00:15.508Z,-77
2022-09-25T02:03:10.933Z,-76
2022-09-25T02:05:53.170Z,-76
2022-09-25T02:08:48.407Z,-76
2022-09-25T02:11:15.845Z,-75
2022-09-25T02:13:59.885Z,-74
2022-09-25T02:16:41.624Z,-74
2022-09-25T02:19:11.555Z,-77
2022-09-25T02:22:02.496Z,-74
2022-09-25T02:24:58.498Z,-76
2022-09-25T02:27:28.536Z,-76
2022-09-25T02:29:57.526Z,-76
2022-09-25T02:32:32.388Z,-76
2022-09-25T02:35:00.750Z,-76
2022-09-25T02:37:30.888Z,-76
2022-09-25T02:40:01.620Z,-76
2022-09-25T02:43:14.683Z,-76
2022-09-25T02:46:11.514Z,-74
2022-09-25T02:49:10.460Z,-77
2022-09-25T02:52:10.229Z,-76
2022-09-25T02:54:53.179Z,-76
2022-09-25T02:57:37.653Z,-74
2022-09-25T03:00:08.142Z,-75
2022-09-25T03:02:42.269Z,-76
2022-09-25T03:05:15.665Z,-76
2022-09-25T03:07:42.915Z,-76
2022-09-25T03:10:10.349Z,-76
2022-09-25T03:12:37.678Z,-76
2022-09-25T03:15:06.376Z,-76
2022-09-25T03:17:34.332Z,-74
2022-09-25T03:20:01.698Z,-74
2022-09-25T03:22:29.386Z,-76
2022-09-25T03:24:59.052Z,-76
2022-09-25T03:27:26.234Z,-74
2022-09-25T03:29:53.342Z,-75
2022-09-25T03:32:20.897Z,-76
2022-09-25T03:34:48.291Z,-76
2022-09-25T03:37:15.472Z,-76
2022-09-25T03:39:42.645Z,-75
2022-09-25T03:42:09.854Z,-76
2022-09-25T03:44:36.996Z,-74
2022-09-25T03:47:04.260Z,-75
2022-09-25T03:49:31.458Z,-76
2022-09-25T03:51:58.735Z,-76
2022-09-25T03:54:28.957Z,-75
2022-09-25T03:56:56.166Z,-76
2022-09-25T03:59:23.381Z,-76
2022-09-25T04:01:50.571Z,-75
2022-09-25T04:04:17.773Z,-75
2022-09-25T04:06:44.964Z,-75
2022-09-25T04:09:12.418Z,-76
2022-09-25T04:11:39.539Z,-74
2022-09-25T04:14:06.996Z,-75
2022-09-25T04:16:34.471Z,-76
2022-09-25T04:19:01.895Z,-75
2022-09-25T04:21:29.141Z,-76
2022-09-25T04:23:58.053Z,-75
2022-09-25T04:26:25.920Z,-75
2022-09-25T04:28:53.081Z,-76
2022-09-25T04:31:20.411Z,-77
2022-09-25T04:33:47.719Z,-77
2022-09-25T04:36:18.343Z,-75
2022-09-25T04:38:46.285Z,-76
2022-09-25T04:41:14.164Z,-76
2022-09-25T04:43:41.348Z,-74
2022-09-25T04:46:16.734Z,-74
2022-09-25T04:48:47.650Z,-75
2022-09-25T04:51:14.809Z,-76
2022-09-25T04:53:42.306Z,-76
2022-09-25T04:56:15.056Z,-75
2022-09-25T04:58:50.225Z,-77
2022-09-25T05:01:20.614Z,-77
2022-09-25T05:03:50.448Z,-74
2022-09-25T05:06:17.740Z,-77
2022-09-25T05:08:47.307Z,-74
2022-09-25T05:11:14.464Z,-76
2022-09-25T05:13:41.685Z,-75
2022-09-25T05:16:08.853Z,-75
2022-09-25T05:18:36.129Z,-75
2022-09-25T05:21:05.105Z,-75
2022-09-25T05:23:32.481Z,-74
2022-09-25T05:25:59.778Z,-75
2022-09-25T05:28:26.947Z,-77
2022-09-25T05:30:54.699Z,-77
2022-09-25T05:33:21.883Z,-75
2022-09-25T05:35:49.054Z,-77
2022-09-25T05:38:16.271Z,-75
2022-09-25T05:40:43.572Z,-76
2022-09-25T05:43:10.844Z,-75
2022-09-25T05:45:38.236Z,-76
2022-09-25T05:48:08.277Z,-77
2022-09-25T05:50:36.221Z,-76
2022-09-25T05:53:05.732Z,-75
2022-09-25T05:55:33.386Z,-76
2022-09-25T05:58:04.898Z,-75
2022-09-25T06:00:33.380Z,-76
2022-09-25T06:03:03.830Z,-75
2022-09-25T06:05:31.133Z,-74
2022-09-25T06:07:58.578Z,-76
2022-09-25T06:10:27.075Z,-75
2022-09-25T06:13:02.886Z,-75
2022-09-25T06:15:36.317Z,-76
2022-09-25T06:18:09.532Z,-76
2022-09-25T06:20:37.353Z,-77
2022-09-25T06:23:04.677Z,-75
2022-09-25T06:25:32.937Z,-77
2022-09-25T06:28:01.893Z,-77
2022-09-25T06:30:33.853Z,-77
2022-09-25T06:33:03.357Z,-75
2022-09-25T06:35:30.724Z,-76
2022-09-25T06:38:00.316Z,-75
2022-09-25T06:40:30.607Z,-76
2022-09-25T06:43:00.685Z,-76
2022-09-25T06:45:32.328Z,-76
2022-09-25T06:48:14.450Z,-76
2022-09-25T06:50:52.672Z,-76
2022-09-25T06:53:22.643Z,-77
2022-09-25T06:55:50.559Z,-77
2022-09-25T06:58:23.688Z,-77
2022-09-25T07:00:54.391Z,-76
2022-09-25T07:03:22.264Z,-76
2022-09-25T07:05:49.676Z,-76
2022-09-25T07:08:19.154Z,-74
2022-09-25T07:10:55.736Z,-75
2022-09-25T07:13:27.426Z,-77
2022-09-25T07:16:04.311Z,-76
2022-09-25T07:18:33.066Z,-76
2022-09-25T07:21:04.025Z,-76
2022-09-25T07:23:31.514Z,-77
2022-09-25T07:26:15.882Z,-76
2022-09-25T07:28:44.278Z,-75
2022-09-25T07:31:22.718Z,-75
2022-09-25T07:33:50.262Z,-75
2022-09-25T07:36:18.782Z,-76
2022-09-25T07:38:50.965Z,-76
2022-09-25T07:41:20.542Z,-75
2022-09-25T07:43:47.899Z,-77
2022-09-25T07:46:15.139Z,-76
2022-09-25T07:48:42.349Z,-77
2022-09-25T07:51:12.184Z,-77
2022-09-25T07:53:39.879Z,-75
2022-09-25T07:56:07.673Z,-75
2022-09-25T07:58:35.407Z,-75
2022-09-25T08:01:06.549Z,-75
2022-09-25T08:03:34.936Z,-76
2022-09-25T08:06:06.147Z,-77
2022-09-25T08:08:36.533Z,-76
2022-09-25T08:11:08.065Z,-77
2022-09-25T08:13:36.433Z,-76
2022-09-25T08:16:13.487Z,-76
2022-09-25T08:18:43.178Z,-74
2022-09-25T08:21:12.152Z,-76
2022-09-25T08:23:41.903Z,-78
2022-09-25T08:26:12.481Z,-76
2022-09-25T08:28:39.641Z,-76
2022-09-25T08:31:06.925Z,-75
2022-09-25T08:33:35.156Z,-75
2022-09-25T08:36:05.405Z,-76
2022-09-25T08:38:33.406Z,-75
2022-09-25T08:41:05.807Z,-75
2022-09-25T08:43:40.650Z,-75
2022-09-25T08:46:36.351Z,-76
2022-09-25T08:49:04.405Z,-75
2022-09-25T08:51:35.306Z,-75
2022-09-25T08:54:05.382Z,-76
2022-09-25T08:56:35.102Z,-75
2022-09-25T08:59:24.804Z,-75
2022-09-25T09:02:01.017Z,-77
2022-09-25T09:04:45.204Z,-76
2022-09-25T09:07:27.306Z,-76
2022-09-25T09:10:27.178Z,-76
2022-09-25T09:13:14.944Z,-75
2022-09-25T09:15:55.987Z,-77
2022-09-25T09:18:29.849Z,-75
2022-09-25T09:21:09.820Z,-75
2022-09-25T09:23:58.492Z,-76
2022-09-25T09:26:57.912Z,-75
2022-09-25T09:29:49.069Z,-76
2022-09-25T09:32:51.726Z,-75
2022-09-25T09:35:33.434Z,-76
2022-09-25T09:38:25.808Z,-76
2022-09-25T09:41:10.643Z,-77
2022-09-25T09:43:46.538Z,-77
2022-09-25T09:46:30.445Z,-75
2022-09-25T09:49:29.534Z,-75
2022-09-25T09:52:04.944Z,-75
2022-09-25T09:54:58.101Z,-77
2022-09-25T09:57:29.663Z,-75
2022-09-25T10:00:13.483Z,-75
2022-09-25T10:02:51.224Z,-76
2022-09-25T10:05:42.043Z,-76
2022-09-25T10:08:13.053Z,-75
2022-09-25T10:11:01.065Z,-77
2022-09-25T10:13:38.818Z,-76
2022-09-25T10:16:16.847Z,-77
2022-09-25T10:18:46.734Z,-78
2022-09-25T10:21:21.253Z,-75
2022-09-25T10:23:55.342Z,-76
2022-09-25T10:26:34.243Z,-75
2022-09-25T10:29:27.729Z,-75
2022-09-25T10:32:04.333Z,-76
2022-09-25T10:34:31.999Z,-76
2022-09-25T10:37:15.045Z,-77
2022-09-25T10:39:45.220Z,-74
2022-09-25T10:43:03.928Z,-75
2022-09-25T10:45:36.838Z,-77
2022-09-25T10:48:29.640Z,-76
2022-09-25T10:51:09.428Z,-76
2022-09-25T10:53:37.576Z,-77
2022-09-25T10:56:11.600Z,-75
2022-09-25T10:58:55.428Z,-76
2022-09-25T11:01:39.623Z,-75
2022-09-25T11:04:31.746Z,-76
2022-09-25T11:07:07.889Z,-76
2022-09-25T11:09:44.878Z,-77
2022-09-25T11:12:23.967Z,-75
2022-09-25T11:15:05.482Z,-76
2022-09-25T11:17:42.553Z,-75
2022-09-25T11:20:29.635Z,-76
2022-09-25T11:23:27.057Z,-74
2022-09-25T11:26:12.844Z,-76
2022-09-25T11:28:47.624Z,-76
2022-09-25T11:31:42.545Z,-75
2022-09-25T11:34:21.217Z,-75
2022-09-25T11:36:55.279Z,-75
2022-09-25T11:39:45.301Z,-75
2022-09-25T11:43:09.044Z,-77
2022-09-25T11:45:49.301Z,-75
2022-09-25T11:49:08.578Z,-77
2022-09-25T11:52:21.106Z,-76
2022-09-25T11:55:43.490Z,-76
2022-09-25T11:58:36.444Z,-75
2022-09-25T12:01:25.009Z,-78
2022-09-25T12:04:00.407Z,-75
2022-09-25T12:06:44.790Z,-75
2022-09-25T12:09:41.095Z,-75
2022-09-25T12:12:38.613Z,-75
2022-09-25T12:15:24.226Z,-77
2022-09-25T12:18:34.348Z,-75
2022-09-25T12:21:14.701Z,-77
2022-09-25T12:24:17.112Z,-76
2022-09-25T12:26:55.889Z,-75
2022-09-25T12:29:42.304Z,-78
2022-09-25T12:32:41.413Z,-76
2022-09-25T12:35:37.172Z,-76
2022-09-25T12:38:23.074Z,-77
2022-09-25T12:41:10.359Z,-75
2022-09-25T12:44:11.583Z,-77
2022-09-25T12:46:58.676Z,-75
2022-09-25T12:50:03.287Z,-76
2022-09-25T12:52:41.618Z,-77
2022-09-25T12:55:27.722Z,-77
2022-09-25T12:58:37.591Z,-76
2022-09-25T13:01:17.339Z,-76
2022-09-25T13:04:05.016Z,-75
2022-09-25T13:06:44.529Z,-76
2022-09-25T13:09:48.854Z,-75
2022-09-25T13:12:28.266Z,-77
2022-09-25T13:15:04.162Z,-75
2022-09-25T13:17:31.407Z,-76
2022-09-25T13:20:26.390Z,-76
2022-09-25T13:23:03.823Z,-79
2022-09-25T13:25:42.432Z,-76
2022-09-25T13:28:23.612Z,-76
2022-09-25T13:31:11.566Z,-75
2022-09-25T13:34:01.591Z,-74
2022-09-25T13:36:33.443Z,-76
2022-09-25T13:39:05.646Z,-76
2022-09-25T13:41:33.256Z,-76
2022-09-25T13:44:47.908Z,-76
2022-09-25T13:47:26.925Z,-77
2022-09-25T13:50:18.815Z,-76
2022-09-25T13:52:45.954Z,-77
2022-09-25T13:55:17.130Z,-74
2022-09-25T13:57:59.303Z,-77
2022-09-25T14:00:36.357Z,-79
2022-09-25T14:03:05.507Z,-78
2022-09-25T14:05:37.233Z,-76
2022-09-25T14:08:15.203Z,-78
2022-09-25T14:10:51.806Z,-77
2022-09-25T14:13:22.482Z,-79
2022-09-25T14:15:53.544Z,-76
2022-09-25T14:18:40.950Z,-78
2022-09-25T14:21:09.016Z,-79
2022-09-25T14:23:50.939Z,-70
2022-09-25T14:26:22.166Z,-78
2022-09-25T14:28:52.155Z,-78
2022-09-25T14:31:31.084Z,-76
2022-09-25T14:34:16.478Z,-77
2022-09-25T14:37:01.532Z,-77
2022-09-25T14:39:54.357Z,-78
2022-09-25T14:43:00.673Z,-77
2022-09-25T14:45:45.838Z,-77
2022-09-25T14:48:23.198Z,-80
2022-09-25T14:50:58.997Z,-78
2022-09-25T14:53:36.530Z,-77
2022-09-25T14:56:05.603Z,-77
2022-09-25T14:58:33.714Z,-78
2022-09-25T15:01:32.006Z,-77
2022-09-25T15:04:07.781Z,-76
2022-09-25T15:06:40.145Z,-78
2022-09-25T15:09:47.691Z,-77
2022-09-25T15:12:25.162Z,-77
2022-09-25T15:15:07.971Z,-77
2022-09-25T15:17:48.112Z,-77
2022-09-25T15:20:23.167Z,-79
2022-09-25T15:23:02.991Z,-78
2022-09-25T15:25:47.534Z,-79
2022-09-25T15:28:19.441Z,-79
2022-09-25T15:30:59.733Z,-78
2022-09-25T15:33:34.279Z,-78
2022-09-25T15:36:17.259Z,-79
2022-09-25T15:38:53.054Z,-79
2022-09-25T15:41:22.326Z,-80
2022-09-25T15:43:50.913Z,-79
2022-09-25T15:46:45.215Z,-78
2022-09-25T15:49:38.651Z,-79
2022-09-25T15:52:26.788Z,-78
2022-09-25T15:54:54.257Z,-79
2022-09-25T15:57:30.388Z,-78
2022-09-25T16:00:04.688Z,-79
2022-09-25T16:02:51.796Z,-79
2022-09-25T16:05:28.735Z,-80
2022-09-25T16:08:24.892Z,-79
2022-09-25T16:11:25.327Z,-78
2022-09-25T16:14:25.970Z,-80
2022-09-25T16:16:56.936Z,-80
2022-09-25T16:19:26.904Z,-80
2022-09-25T16:21:54.981Z,-78
2022-09-25T16:24:26.806Z,-79
2022-09-25T16:27:05.111Z,-79
2022-09-25T16:29:39.500Z,-81
2022-09-25T16:32:18.838Z,-79
2022-09-25T16:35:03.552Z,-79
2022-09-25T16:37:36.345Z,-79
2022-09-25T16:40:29.429Z,-78
2022-09-25T16:42:58.131Z,-78
2022-09-25T16:45:29.883Z,-79
2022-09-25T16:47:57.803Z,-80
2022-09-25T16:50:28.209Z,-78
2022-09-25T16:52:55.493Z,-79
2022-09-25T16:55:27.066Z,-79
2022-09-25T16:57:56.227Z,-79
2022-09-25T17:00:27.733Z,-79
2022-09-25T17:02:55.621Z,-81
2022-09-25T17:05:27.632Z,-79
2022-09-25T17:07:58.477Z,-79
2022-09-25T17:10:29.416Z,-76
2022-09-25T17:13:00.941Z,-75
2022-09-25T17:15:36.473Z,-75
2022-09-25T17:18:21.500Z,-77
2022-09-25T17:20:54.618Z,-78
2022-09-25T17:23:24.559Z,-79
2022-09-25T17:26:02.694Z,-78
2022-09-25T17:28:30.672Z,-78
2022-09-25T17:30:57.980Z,-77
2022-09-25T17:33:25.248Z,-77
2022-09-25T17:36:01.911Z,-80
2022-09-25T17:38:29.269Z,-78
2022-09-25T17:41:00.464Z,-78
2022-09-25T17:43:30.461Z,-78
2022-09-25T17:46:00.664Z,-77
2022-09-25T17:48:31.442Z,-79
2022-09-25T17:51:03.541Z,-78
2022-09-25T17:53:33.775Z,-78
2022-09-25T17:56:02.487Z,-78
2022-09-25T17:58:32.993Z,-78
2022-09-25T18:01:02.172Z,-80
2022-09-25T18:03:29.680Z,-77
2022-09-25T18:05:57.585Z,-78
2022-09-25T18:08:24.939Z,-78
2022-09-25T18:10:55.367Z,-79
2022-09-25T18:13:23.160Z,-78
2022-09-25T18:16:00.056Z,-80
2022-09-25T18:18:27.771Z,-78
2022-09-25T18:20:55.223Z,-79
2022-09-25T18:23:24.537Z,-78
2022-09-25T18:25:53.575Z,-78
2022-09-25T18:28:22.481Z,-77
2022-09-25T18:30:51.618Z,-78
2022-09-25T18:33:20.954Z,-79
2022-09-25T18:35:49.998Z,-78
2022-09-25T18:38:18.911Z,-78
2022-09-25T18:40:46.876Z,-78
2022-09-25T18:43:14.737Z,-77
2022-09-25T18:45:49.615Z,-78
2022-09-25T18:48:21.420Z,-80
2022-09-25T18:50:59.769Z,-79
2022-09-25T18:53:27.965Z,-78
2022-09-25T18:55:58.024Z,-79
2022-09-25T18:58:31.968Z,-78
2022-09-25T19:01:00.426Z,-79
2022-09-25T19:03:29.603Z,-78
2022-09-25T19:05:59.927Z,-79
2022-09-25T19:08:28.930Z,-78
2022-09-25T19:10:57.670Z,-78
2022-09-25T19:13:30.637Z,-78
2022-09-25T19:15:57.971Z,-78
2022-09-25T19:18:27.204Z,-80
2022-09-25T19:20:57.325Z,-79
2022-09-25T19:23:28.406Z,-78
2022-09-25T19:26:02.940Z,-79
2022-09-25T19:28:32.875Z,-78
2022-09-25T19:31:16.408Z,-78
2022-09-25T19:33:44.126Z,-79
2022-09-25T19:36:27.953Z,-78
2022-09-25T19:38:56.666Z,-78
2022-09-25T19:41:31.396Z,-78
2022-09-25T19:44:08.116Z,-78
2022-09-25T19:46:40.020Z,-79
2022-09-25T19:49:08.130Z,-79
2022-09-25T19:51:37.742Z,-78
2022-09-25T19:54:12.234Z,-80
2022-09-25T19:56:42.452Z,-80
2022-09-25T19:59:17.798Z,-79
2022-09-25T20:01:48.181Z,-77
2022-09-25T20:04:19.014Z,-78
2022-09-25T20:06:52.198Z,-78
2022-09-25T20:09:23.290Z,-78
2022-09-25T20:11:53.164Z,-78
2022-09-25T20:14:21.530Z,-78
2022-09-25T20:16:48.646Z,-79
2022-09-25T20:19:19.195Z,-79
2022-09-25T20:21:48.164Z,-78
2022-09-25T20:24:15.974Z,-78
2022-09-25T20:26:43.286Z,-78
2022-09-25T20:29:17.082Z,-79
2022-09-25T20:31:46.758Z,-79
2022-09-25T20:34:19.874Z,-78
2022-09-25T20:36:49.295Z,-81
2022-09-25T20:39:21.148Z,-78
2022-09-25T20:41:51.652Z,-78
2022-09-25T20:44:19.309Z,-77
2022-09-25T20:46:47.440Z,-78
2022-09-25T20:49:17.109Z,-77
2022-09-25T20:51:46.544Z,-78
2022-09-25T20:54:13.752Z,-78
2022-09-25T20:56:41.022Z,-77
2022-09-25T20:59:11.354Z,-79
2022-09-25T21:01:41.140Z,-79
2022-09-25T21:04:09.252Z,-78
2022-09-25T21:06:41.647Z,-78
2022-09-25T21:09:20.620Z,-78
2022-09-25T21:11:48.602Z,-78
2022-09-25T21:14:26.598Z,-77
2022-09-25T21:16:55.867Z,-77
2022-09-25T21:19:24.751Z,-77
2022-09-25T21:21:52.126Z,-77
2022-09-25T21:24:22.523Z,-78
2022-09-25T21:26:54.441Z,-78
2022-09-25T21:29:22.919Z,-79
2022-09-25T21:31:51.080Z,-78
2022-09-25T21:34:19.672Z,-78
2022-09-25T21:36:48.430Z,-78
2022-09-25T21:39:16.872Z,-79
2022-09-25T21:41:45.312Z,-78
2022-09-25T21:44:16.167Z,-79
2022-09-25T21:46:45.007Z,-78
2022-09-25T21:49:22.247Z,-78
2022-09-25T21:51:49.967Z,-79
2022-09-25T21:54:17.483Z,-78
2022-09-25T21:56:44.786Z,-78
2022-09-25T21:59:13.161Z,-78
2022-09-25T22:01:41.475Z,-79
2022-09-25T22:04:13.616Z,-78
2022-09-25T22:06:47.420Z,-78
2022-09-25T22:09:20.162Z,-78
2022-09-25T22:11:48.895Z,-78
2022-09-25T22:14:18.080Z,-77
2022-09-25T22:16:49.273Z,-78
2022-09-25T22:19:29.412Z,-77
2022-09-25T22:21:58.738Z,-78
2022-09-25T22:24:26.923Z,-78
2022-09-25T22:26:56.239Z,-77
2022-09-25T22:29:24.696Z,-78
2022-09-25T22:31:52.820Z,-79
2022-09-25T22:34:24.651Z,-81
2022-09-25T22:36:58.921Z,-78
2022-09-25T22:39:28.673Z,-79
2022-09-25T22:41:56.419Z,-80
2022-09-25T22:44:23.777Z,-79
2022-09-25T22:46:51.224Z,-78
2022-09-25T22:49:18.750Z,-78
2022-09-25T22:51:45.879Z,-79
2022-09-25T22:54:13.895Z,-78
2022-09-25T22:56:41.891Z,-77
2022-09-25T22:59:14.403Z,-78
2022-09-25T23:01:50.367Z,-79
2022-09-25T23:04:21.733Z,-78
2022-09-25T23:06:50.074Z,-77
2022-09-25T23:09:21.058Z,-77
2022-09-25T23:11:48.869Z,-78
2022-09-25T23:14:21.672Z,-78
2022-09-25T23:16:51.390Z,-78
2022-09-25T23:19:20.117Z,-77
2022-09-25T23:21:48.405Z,-78
2022-09-25T23:24:18.426Z,-78
2022-09-25T23:26:46.549Z,-77
2022-09-25T23:29:17.046Z,-77
2022-09-25T23:31:45.917Z,-77
2022-09-25T23:34:13.866Z,-77
2022-09-25T23:36:41.413Z,-78
2022-09-25T23:39:17.067Z,-78
2022-09-25T23:41:45.175Z,-78
2022-09-25T23:44:12.565Z,-77
2022-09-25T23:46:42.404Z,-78
2022-09-25T23:49:10.485Z,-78
2022-09-25T23:51:39.131Z,-79
2022-09-25T23:54:06.656Z,-78
2022-09-25T23:56:35.727Z,-77
2022-09-25T23:59:04.375Z,-77
